Broadmeadows, Australia
Current Conditions -  °F | °C
As of 3:00 AM on Monday 24 Nov 2014 (Local Time) from YMEN Reporting Station
Clear Clear  
Wind Chill: 14°   Ceiling: Unl
Heat Index: 14°   Visibility: 6mi
Dew Point: 11°   Wind: 5mph
Humidity: 82%   Direction: 320°NW
Pressure: 29.8"   Gusts: NA
Location:  37.68°S, 144.92°E
Report Text: YMEN 231600Z AUTO 32004KT 9999 // NCD 14/11 Q1009
Loading
Personal Weather Stations






























Interactive Weather Map New forecast layout! Learn more

10-Day Weather Forecast

Advertisements
Track Severe Weather on mobile